Time;durP1;ratioP1;P1;durP2;ratioP2;P2;SDS_P1;SDS_P2;PMS_P1;PMS_P2;Temp;Humidity;BMP_temperature;BMP_pressure;BME280_temperature;BME280_humidity;BME280_pressure;Samples;Min_cycle;Max_cycle;Signal;HPM_P1;HPM_P2
2023/04/21 00:00:08;;;;;;;13.73;6.73;;;;;;;6.90;100.00;101302.72;5006671;28;20034;-72
2023/04/21 00:02:38;;;;;;;15.77;6.65;;;;;;;6.91;100.00;101297.28;5003537;28;20041;-71
2023/04/21 00:05:12;;;;;;;17.70;7.43;;;;;;;6.92;100.00;101287.50;5007407;28;20036;-71
2023/04/21 00:07:39;;;;;;;18.20;7.43;;;;;;;6.88;100.00;101270.13;5007986;28;20434;-71
2023/04/21 00:10:13;;;;;;;21.25;7.97;;;;;;;6.89;100.00;101274.50;5005816;28;20030;-71
2023/04/21 00:12:39;;;;;;;14.65;6.90;;;;;;;6.83;100.00;101256.41;4999197;28;20034;-71
2023/04/21 00:15:05;;;;;;;15.93;6.43;;;;;;;6.88;100.00;101262.16;5022512;28;20628;-71
2023/04/21 00:17:30;;;;;;;14.77;6.43;;;;;;;6.89;100.00;101247.94;5006729;28;20033;-71
2023/04/21 00:19:56;;;;;;;14.23;6.87;;;;;;;6.85;100.00;101244.69;5007405;28;20042;-71
2023/04/21 00:22:21;;;;;;;16.90;6.50;;;;;;;6.90;100.00;101223.91;5006729;28;20062;-71
2023/04/21 00:24:47;;;;;;;13.25;7.07;;;;;;;6.89;100.00;101210.78;5007292;28;20096;-71
2023/04/21 00:27:14;;;;;;;13.60;6.10;;;;;;;6.91;100.00;101191.09;5007747;28;20521;-71
2023/04/21 00:29:40;;;;;;;9.45;5.70;;;;;;;6.89;100.00;101185.09;4990015;28;20268;-72
2023/04/21 00:32:08;;;;;;;14.35;5.97;;;;;;;6.92;100.00;101194.59;4989938;28;20041;-71
2023/04/21 00:34:34;;;;;;;18.38;6.72;;;;;;;6.96;100.00;101196.03;5006030;28;20042;-72
2023/04/21 00:36:59;;;;;;;12.88;6.32;;;;;;;6.93;100.00;101165.28;5007754;28;20048;-72
2023/04/21 00:39:25;;;;;;;13.73;6.90;;;;;;;6.88;100.00;101140.94;5003989;28;20065;-71
2023/04/21 00:41:50;;;;;;;11.80;6.70;;;;;;;6.95;100.00;101146.56;5001700;28;20022;-71
2023/04/21 00:44:16;;;;;;;20.73;7.37;;;;;;;6.90;100.00;101123.03;5000074;28;20030;-71
2023/04/21 00:46:42;;;;;;;10.57;5.80;;;;;;;6.91;100.00;101123.91;5007188;28;20029;-71
2023/04/21 00:49:07;;;;;;;14.73;6.72;;;;;;;6.91;100.00;101119.44;5007074;28;20034;-71
2023/04/21 00:51:35;;;;;;;16.73;6.80;;;;;;;6.90;100.00;101112.44;5006030;28;20049;-71
2023/04/21 00:54:03;;;;;;;12.60;5.80;;;;;;;6.97;100.00;101123.38;5005369;28;20146;-71
2023/04/21 00:56:31;;;;;;;19.48;5.80;;;;;;;6.91;100.00;101105.34;5001332;28;20619;-72
2023/04/21 00:59:00;;;;;;;14.75;6.32;;;;;;;6.93;100.00;101128.13;4999819;28;20475;-71
2023/04/21 01:01:31;;;;;;;16.55;6.22;;;;;;;6.89;100.00;101121.38;4989033;28;20049;-71
2023/04/21 01:03:58;;;;;;;17.30;6.60;;;;;;;6.98;100.00;101130.38;5005511;28;20033;-71
2023/04/21 01:06:27;;;;;;;17.38;7.53;;;;;;;6.90;100.00;101106.28;5006238;28;20067;-72
2023/04/21 01:08:55;;;;;;;16.25;6.47;;;;;;;6.92;100.00;101129.06;5005009;28;20669;-71
2023/04/21 01:11:21;;;;;;;13.85;6.63;;;;;;;6.86;100.00;101110.16;5001111;28;20037;-71
2023/04/21 01:13:46;;;;;;;18.43;6.60;;;;;;;6.95;100.00;101107.59;5003446;28;20041;-71
2023/04/21 01:16:16;;;;;;;17.13;6.78;;;;;;;6.95;100.00;101090.81;4985983;28;20026;-71
2023/04/21 01:18:43;;;;;;;15.23;6.78;;;;;;;6.89;100.00;101080.72;5003017;28;20034;-72
2023/04/21 01:21:10;;;;;;;14.05;6.13;;;;;;;6.89;100.00;101099.31;5005692;28;20121;-71
2023/04/21 01:23:35;;;;;;;10.75;5.60;;;;;;;6.90;100.00;101100.97;5001913;28;20030;-71
2023/04/21 01:26:01;;;;;;;15.00;7.90;;;;;;;6.82;100.00;101087.53;5004336;28;20414;-71
2023/04/21 01:28:26;;;;;;;16.83;6.93;;;;;;;6.74;100.00;101054.53;5004999;28;20104;-72
2023/04/21 01:30:55;;;;;;;18.37;7.73;;;;;;;6.85;100.00;101074.00;5005196;28;20105;-72
2023/04/21 01:33:20;;;;;;;12.25;5.50;;;;;;;6.85;100.00;101066.84;5004965;28;20021;-72
2023/04/21 01:35:46;;;;;;;17.57;5.57;;;;;;;6.86;100.00;101041.16;5004663;28;20383;-72
2023/04/21 01:38:12;;;;;;;9.80;5.17;;;;;;;6.95;100.00;101027.09;5004874;28;20510;-72
2023/04/21 01:40:37;;;;;;;17.77;7.07;;;;;;;6.90;100.00;101002.78;5001229;28;20340;-71
2023/04/21 01:43:04;;;;;;;13.85;6.13;;;;;;;6.92;100.00;101008.78;4998258;28;20044;-72
2023/04/21 01:45:30;;;;;;;12.63;5.30;;;;;;;7.01;100.00;101007.16;4999236;28;20022;-72
2023/04/21 01:47:55;;;;;;;11.35;5.85;;;;;;;6.92;100.00;101000.81;4986813;28;20054;-71
2023/04/21 01:50:21;;;;;;;31.13;6.60;;;;;;;6.76;100.00;101004.78;5001916;28;20036;-72
2023/04/21 01:52:46;;;;;;;11.70;5.70;;;;;;;6.76;100.00;101044.59;5015318;28;20037;-71
2023/04/21 01:55:13;;;;;;;20.67;6.35;;;;;;;6.78;100.00;101048.94;5004317;28;20313;-74
2023/04/21 01:57:39;;;;;;;12.40;5.95;;;;;;;6.88;100.00;101063.09;5004500;28;20451;-72
2023/04/21 02:00:06;;;;;;;16.58;5.75;;;;;;;6.89;100.00;101043.56;5004566;28;20034;-72
2023/04/21 02:02:40;;;;;;;12.70;6.05;;;;;;;6.85;100.00;101044.78;5004864;28;20041;-72
2023/04/21 02:05:06;;;;;;;17.90;6.00;;;;;;;6.85;100.00;101032.34;5003677;28;20152;-71
2023/04/21 02:07:31;;;;;;;18.77;6.45;;;;;;;6.80;100.00;101034.56;4995348;28;20026;-72
2023/04/21 02:09:56;;;;;;;19.67;5.63;;;;;;;6.82;100.00;101043.25;4997293;28;20037;-72
2023/04/21 02:12:22;;;;;;;11.73;5.10;;;;;;;6.82;100.00;101045.91;5003870;28;20034;-72
2023/04/21 02:14:48;;;;;;;9.13;4.83;;;;;;;6.89;100.00;101035.59;5005308;28;20107;-72
2023/04/21 02:17:14;;;;;;;11.40;6.00;;;;;;;6.90;100.00;101024.84;4998758;28;20034;-72
2023/04/21 02:19:39;;;;;;;12.05;6.05;;;;;;;6.86;100.00;101004.00;5004115;28;20030;-72
2023/04/21 02:22:07;;;;;;;13.18;4.93;;;;;;;6.90;100.00;100986.84;5004228;28;20529;-72
2023/04/21 02:24:35;;;;;;;15.10;6.47;;;;;;;6.91;100.00;101004.47;4982087;28;20517;-71
2023/04/21 02:27:01;;;;;;;12.68;5.75;;;;;;;6.92;100.00;100991.03;5004457;28;20505;-72
2023/04/21 02:29:27;;;;;;;;;;;;;;;6.89;100.00;100977.22;4988310;28;20117;-71
2023/04/21 02:31:52;;;;;;;18.40;5.60;;;;;;;6.92;100.00;100961.84;5004004;28;20041;-71
2023/04/21 02:34:18;;;;;;;11.43;5.07;;;;;;;6.87;100.00;100958.75;5005310;28;20095;-70
2023/04/21 02:36:43;;;;;;;11.13;6.20;;;;;;;6.82;100.00;100952.19;5003899;28;20569;-71
2023/04/21 02:39:09;;;;;;;15.17;5.20;;;;;;;6.82;100.00;100962.78;5004235;28;20029;-71
2023/04/21 02:41:39;;;;;;;13.35;6.90;;;;;;;6.86;100.00;100966.84;4991274;28;20080;-70
2023/04/21 02:44:05;;;;;;;9.15;4.88;;;;;;;6.89;100.00;100945.38;5003417;28;20080;-71
2023/04/21 02:46:30;;;;;;;13.63;5.85;;;;;;;6.94;100.00;100932.53;5004324;28;20014;-71
2023/04/21 02:48:57;;;;;;;14.45;4.97;;;;;;;6.93;100.00;100929.03;4987628;28;20034;-71
2023/04/21 02:51:23;;;;;;;8.67;5.13;;;;;;;6.91;100.00;100916.88;5004235;28;20044;-72
2023/04/21 02:53:48;;;;;;;13.57;6.43;;;;;;;6.84;100.00;100926.34;5003815;28;20042;-72
2023/04/21 02:56:14;;;;;;;12.47;5.47;;;;;;;6.82;100.00;100941.56;5004110;28;20041;-72
2023/04/21 02:58:39;;;;;;;11.80;5.10;;;;;;;6.85;100.00;100922.72;5003664;28;20327;-72
2023/04/21 03:01:05;;;;;;;10.67;5.60;;;;;;;6.78;100.00;100908.31;5004121;28;20076;-71
2023/04/21 03:03:31;;;;;;;12.18;4.65;;;;;;;6.84;100.00;100923.69;5003646;28;20486;-71
2023/04/21 03:06:02;;;;;;;10.02;4.47;;;;;;;6.88;100.00;100927.75;5003537;28;20570;-71
2023/04/21 03:08:28;;;;;;;12.20;6.03;;;;;;;6.82;100.00;100913.22;5003947;28;20056;-72
2023/04/21 03:10:53;;;;;;;8.70;4.75;;;;;;;6.63;100.00;100891.91;5003803;28;20900;-72
2023/04/21 03:13:21;;;;;;;9.73;5.53;;;;;;;6.59;100.00;100933.78;5046137;23;20045;-69
2023/04/21 03:15:49;;;;;;;16.02;5.70;;;;;;;6.54;100.00;100941.28;5029089;28;20499;-73
2023/04/21 03:18:15;;;;;;;12.38;5.45;;;;;;;6.53;100.00;100993.50;5030571;28;20511;-71
2023/04/21 03:20:40;;;;;;;10.95;5.20;;;;;;;6.62;100.00;100975.13;5028267;28;20041;-71
2023/04/21 03:23:07;;;;;;;14.82;6.55;;;;;;;6.64;100.00;100944.81;5031148;28;20029;-70
2023/04/21 03:25:32;;;;;;;11.90;5.15;;;;;;;6.70;100.00;100919.59;5032282;28;20203;-72
2023/04/21 03:27:58;;;;;;;12.68;4.78;;;;;;;6.72;100.00;100922.97;5024590;28;20044;-73
2023/04/21 03:30:27;;;;;;;12.55;5.60;;;;;;;6.73;100.00;100906.88;5037209;28;20397;-70
2023/04/21 03:32:54;;;;;;;14.00;5.75;;;;;;;6.71;100.00;100900.88;5034284;28;20778;-70
2023/04/21 03:35:20;;;;;;;9.63;4.70;;;;;;;6.64;100.00;100886.44;5032475;28;20048;-69
2023/04/21 03:37:45;;;;;;;13.90;5.47;;;;;;;6.64;100.00;100905.03;5032127;28;20212;-70
2023/04/21 03:40:10;;;;;;;10.70;5.00;;;;;;;6.64;100.00;100857.28;5033677;28;20533;-70
2023/04/21 03:42:36;;;;;;;10.40;5.37;;;;;;;6.65;100.00;100853.66;5031547;28;20032;-70
2023/04/21 03:45:05;;;;;;;12.20;5.00;;;;;;;6.65;100.00;100848.34;5033916;28;20086;-71
2023/04/21 03:47:33;;;;;;;13.38;7.07;;;;;;;6.58;100.00;100849.00;5031692;28;20299;-71
2023/04/21 03:49:58;;;;;;;12.00;4.65;;;;;;;6.59;100.00;100859.50;5033650;28;20604;-73
2023/04/21 03:52:23;;;;;;;13.17;4.83;;;;;;;6.61;100.00;100862.84;5031736;28;20056;-72
2023/04/21 03:54:49;;;;;;;11.60;5.30;;;;;;;6.65;100.00;100848.34;5033330;28;20510;-72
2023/04/21 03:57:15;;;;;;;10.57;4.20;;;;;;;6.60;100.00;100847.88;5034037;28;20036;-70
2023/04/21 03:59:41;;;;;;;10.27;4.88;;;;;;;6.60;100.00;100805.44;5033512;28;20043;-71
2023/04/21 04:02:06;;;;;;;11.65;4.63;;;;;;;6.58;100.00;100802.13;5033709;28;20025;-69
2023/04/21 04:04:31;;;;;;;9.43;4.13;;;;;;;6.62;100.00;100818.59;5036801;28;20469;-70
2023/04/21 04:06:57;;;;;;;7.87;4.50;;;;;;;6.64;100.00;100774.19;5035965;28;20353;-70
2023/04/21 04:09:23;;;;;;;11.93;5.03;;;;;;;6.64;100.00;100755.63;5033066;28;20606;-70
2023/04/21 04:11:48;;;;;;;13.57;4.50;;;;;;;6.56;100.00;100758.97;5033238;28;20112;-73
2023/04/21 04:14:14;;;;;;;11.48;4.35;;;;;;;6.58;100.00;100754.38;5032193;28;20087;-70
2023/04/21 04:16:40;;;;;;;15.27;5.00;;;;;;;6.66;100.00;100748.38;5032533;28;20029;-70
2023/04/21 04:19:06;;;;;;;10.52;4.35;;;;;;;6.70;100.00;100720.59;5034666;28;20036;-70
2023/04/21 04:21:32;;;;;;;7.57;3.50;;;;;;;6.68;100.00;100711.94;5032108;28;20030;-70
2023/04/21 04:23:57;;;;;;;;;;;;;;;6.68;100.00;100694.19;5034565;28;20438;-70
2023/04/21 04:26:24;;;;;;;9.93;4.03;;;;;;;6.65;100.00;100683.00;5048191;28;19917;-72
2023/04/21 04:28:50;;;;;;;10.63;4.05;;;;;;;6.67;100.00;100700.50;5032746;28;20386;-71
2023/04/21 04:31:16;;;;;;;19.23;4.15;;;;;;;6.79;100.00;100697.69;5033278;28;20454;-70
2023/04/21 04:33:41;;;;;;;13.30;4.03;;;;;;;6.78;100.00;100664.16;5037440;28;20120;-71
2023/04/21 04:36:07;;;;;;;12.85;4.00;;;;;;;6.74;100.00;100661.81;5033532;28;20028;-70
2023/04/21 04:38:36;;;;;;;8.93;3.80;;;;;;;6.74;100.00;100693.66;5030677;28;20033;-72
2023/04/21 04:41:02;;;;;;;13.30;4.10;;;;;;;6.94;100.00;100680.38;5039024;28;20033;-71
2023/04/21 04:43:28;;;;;;;12.75;4.05;;;;;;;6.92;100.00;100616.81;5018964;28;20253;-71
2023/04/21 04:45:53;;;;;;;11.90;5.32;;;;;;;6.96;100.00;100604.94;5033118;28;20033;-72
2023/04/21 04:48:19;;;;;;;7.53;4.10;;;;;;;6.98;100.00;100602.16;5032572;28;20032;-71
2023/04/21 04:50:44;;;;;;;9.20;4.67;;;;;;;7.03;100.00;100601.72;5032160;28;20326;-70
2023/04/21 04:53:09;;;;;;;7.93;4.07;;;;;;;7.05;100.00;100613.88;5033221;28;20056;-70
2023/04/21 04:55:38;;;;;;;12.50;3.90;;;;;;;7.01;100.00;100580.59;5031916;28;20371;-69
2023/04/21 04:58:03;;;;;;;8.77;3.88;;;;;;;7.04;100.00;100636.06;5049060;28;20055;-73
2023/04/21 05:00:28;;;;;;;9.00;4.00;;;;;;;7.00;100.00;100629.38;5036565;28;20573;-70
2023/04/21 05:02:54;;;;;;;10.33;4.10;;;;;;;7.08;100.00;100647.25;5040590;28;20337;-70
2023/04/21 05:05:20;;;;;;;7.97;4.20;;;;;;;7.14;100.00;100647.53;5032624;28;20029;-71
2023/04/21 05:07:46;;;;;;;9.50;3.17;;;;;;;7.17;100.00;100609.22;5031893;28;20440;-70
2023/04/21 05:10:12;;;;;;;11.25;3.55;;;;;;;7.23;100.00;100613.94;5033485;28;20024;-71
2023/04/21 05:12:37;;;;;;;9.80;3.67;;;;;;;7.27;100.00;100625.94;5031336;28;20931;-69
2023/04/21 05:15:04;;;;;;;10.37;4.40;;;;;;;7.27;100.00;100618.00;5033942;28;20139;-72
2023/04/21 05:17:29;;;;;;;11.45;4.85;;;;;;;7.36;100.00;100617.13;5031510;28;20048;-69
2023/04/21 05:19:55;;;;;;;9.67;3.33;;;;;;;7.42;100.00;100615.69;5033156;28;20037;-69
2023/04/21 05:22:20;;;;;;;7.47;3.72;;;;;;;7.67;100.00;100664.69;5030955;28;20076;-69
2023/04/21 05:24:46;;;;;;;11.17;3.63;;;;;;;8.54;100.00;100694.50;5031998;28;20075;-71
2023/04/21 05:27:11;;;;;;;8.40;3.87;;;;;;;9.21;100.00;100490.66;5033101;28;20402;-69
2023/04/21 05:29:37;;;;;;;11.13;4.20;;;;;;;9.70;100.00;100384.22;5029855;28;20069;-70
2023/04/21 05:32:02;;;;;;;13.23;3.70;;;;;;;9.69;100.00;100089.34;5033125;28;20066;-71
2023/04/21 05:34:27;;;;;;;9.80;3.80;;;;;;;9.84;100.00;100102.78;5033279;28;20288;-69
2023/04/21 05:36:53;;;;;;;14.60;4.37;;;;;;;9.10;100.00;99811.88;5039839;28;20060;-72
2023/04/21 05:39:18;;;;;;;12.00;3.77;;;;;;;9.20;100.00;100059.34;5040305;28;20107;-73
2023/04/21 05:41:43;;;;;;;8.60;3.97;;;;;;;9.27;100.00;100047.84;5039119;28;20171;-70
2023/04/21 05:44:09;;;;;;;8.30;4.17;;;;;;;9.80;100.00;100185.94;5044639;28;20040;-70
2023/04/21 05:46:34;;;;;;;10.67;4.27;;;;;;;10.06;99.49;100089.66;5041671;28;20030;-70
2023/04/21 05:49:03;;;;;;;9.13;3.60;;;;;;;10.49;96.92;99997.53;5039105;28;20037;-70
2023/04/21 05:51:28;;;;;;;9.02;3.90;;;;;;;10.96;98.48;100201.22;5040956;28;20067;-72
2023/04/21 05:53:53;;;;;;;9.07;4.13;;;;;;;10.21;95.52;99822.97;5027796;28;20485;-71
2023/04/21 05:56:19;;;;;;;9.30;4.10;;;;;;;11.25;96.11;100141.69;5038993;28;20032;-70
2023/04/21 05:58:44;;;;;;;13.07;4.37;;;;;;;11.14;92.72;99833.09;5025050;28;20025;-70
2023/04/21 06:01:10;;;;;;;10.60;4.23;;;;;;;10.86;91.85;99765.34;5046091;28;20434;-70
2023/04/21 06:03:35;;;;;;;9.32;4.68;;;;;;;11.49;89.60;99749.53;5043645;28;20029;-73
2023/04/21 06:06:03;;;;;;;12.70;3.90;;;;;;;12.11;88.51;99836.25;5044041;28;20048;-71
2023/04/21 06:08:28;;;;;;;9.80;3.60;;;;;;;12.16;85.10;99452.03;5027784;28;20414;-72
2023/04/21 06:10:57;;;;;;;7.53;3.73;;;;;;;11.25;84.96;99320.63;5044940;28;20029;-71
2023/04/21 06:13:22;;;;;;;11.35;3.80;;;;;;;11.39;85.45;99488.78;5038396;28;20021;-70
2023/04/21 06:15:49;;;;;;;9.52;3.58;;;;;;;11.73;86.41;99717.03;5043695;28;20044;-70
2023/04/21 06:18:15;;;;;;;7.97;4.23;;;;;;;11.77;84.89;99584.56;5039433;28;20025;-70
2023/04/21 06:20:40;;;;;;;9.05;3.83;;;;;;;11.67;83.93;99453.13;5045650;28;20040;-70
2023/04/21 06:23:06;;;;;;;7.93;3.50;;;;;;;11.17;84.04;99409.78;5043859;28;20082;-70
2023/04/21 06:25:31;;;;;;;7.20;4.10;;;;;;;10.85;84.96;99464.66;5045489;28;20275;-71
2023/04/21 06:27:56;;;;;;;8.87;3.93;;;;;;;10.87;86.47;99714.44;5044284;28;20071;-71
2023/04/21 06:30:22;;;;;;;15.20;5.17;;;;;;;10.88;86.15;99683.22;5045258;28;20075;-70
2023/04/21 06:32:47;;;;;;;18.60;4.13;;;;;;;10.59;86.37;99620.91;5045178;28;20028;-69
2023/04/21 06:35:14;;;;;;;7.20;3.87;;;;;;;11.27;87.24;99939.25;5045264;28;20524;-72
2023/04/21 06:37:42;;;;;;;12.63;3.95;;;;;;;11.51;85.30;99775.03;5044052;28;20029;-71
2023/04/21 06:40:07;;;;;;;13.20;5.03;;;;;;;11.59;84.37;99664.50;5043213;28;20067;-71
2023/04/21 06:42:33;;;;;;;11.10;4.28;;;;;;;12.08;83.65;99754.53;5045305;28;20072;-73
2023/04/21 06:44:59;;;;;;;11.48;4.35;;;;;;;11.90;82.71;99615.13;5039444;28;20040;-70
2023/04/21 06:47:25;;;;;;;10.47;4.13;;;;;;;12.24;81.70;99606.19;5045279;28;20087;-70
2023/04/21 06:49:50;;;;;;;10.55;4.80;;;;;;;11.96;81.27;99467.22;5043939;28;20055;-70
2023/04/21 06:52:15;;;;;;;10.25;4.13;;;;;;;12.34;81.02;99641.44;5042725;28;20393;-70
2023/04/21 06:54:41;;;;;;;10.50;4.70;;;;;;;12.06;79.87;99467.66;5041507;28;20063;-71
2023/04/21 06:57:06;;;;;;;17.27;5.17;;;;;;;11.76;80.16;99419.03;5045256;28;20025;-70
2023/04/21 06:59:33;;;;;;;14.27;5.07;;;;;;;12.22;81.49;99713.44;5048380;28;20734;-70
2023/04/21 07:01:58;;;;;;;9.70;4.55;;;;;;;12.53;80.94;99728.19;5049175;28;20041;-72
2023/04/21 07:04:28;;;;;;;9.93;4.10;;;;;;;13.22;79.80;99783.41;5048900;28;20021;-72
2023/04/21 07:06:54;;;;;;;10.95;4.75;;;;;;;13.63;78.46;99728.84;5047831;28;20066;-71
2023/04/21 07:09:20;;;;;;;9.30;4.15;;;;;;;13.72;76.66;99499.59;5048943;28;20096;-71
2023/04/21 07:11:45;;;;;;;9.15;4.88;;;;;;;14.24;76.71;99668.63;5042730;28;20129;-70
2023/04/21 07:14:10;;;;;;;8.67;4.30;;;;;;;14.32;75.37;99552.13;5040764;28;20101;-70
2023/04/21 07:16:36;;;;;;;13.10;4.30;;;;;;;14.38;73.68;99425.06;5033688;28;20121;-70
2023/04/21 07:19:01;;;;;;;15.93;5.33;;;;;;;14.54;73.34;99429.91;5035867;28;20072;-70
2023/04/21 07:21:27;;;;;;;12.20;3.87;;;;;;;14.65;73.53;99459.78;5032466;28;20346;-70
2023/04/21 07:23:52;;;;;;;7.93;4.32;;;;;;;14.80;72.78;99430.72;5040694;28;20037;-70
2023/04/21 07:26:18;;;;;;;12.93;4.70;;;;;;;15.13;71.83;99449.16;5034853;28;20497;-73
2023/04/21 07:28:43;;;;;;;14.03;4.63;;;;;;;15.13;70.32;99277.13;5033587;28;20506;-71
2023/04/21 07:31:08;;;;;;;7.97;4.17;;;;;;;14.74;70.28;99208.63;5034568;28;20577;-70
2023/04/21 07:33:34;;;;;;;8.20;4.27;;;;;;;13.61;71.01;99001.50;5032039;28;20104;-70
2023/04/21 07:35:59;;;;;;;10.00;5.00;;;;;;;13.54;72.03;99192.97;5051142;28;20506;-70
2023/04/21 07:38:25;;;;;;;8.77;4.53;;;;;;;14.21;72.74;99548.28;5038844;28;20494;-70
2023/04/21 07:40:50;;;;;;;7.50;4.43;;;;;;;14.83;71.40;99483.19;5036627;28;20120;-72
2023/04/21 07:43:17;;;;;;;8.65;4.68;;;;;;;15.02;71.20;99548.53;5033033;28;20378;-70
2023/04/21 07:45:42;;;;;;;10.88;4.75;;;;;;;14.01;69.04;98928.53;5033048;28;20025;-73
2023/04/21 07:48:07;;;;;;;10.60;4.77;;;;;;;14.32;71.64;99450.91;5045365;28;20513;-70
2023/04/21 07:50:35;;;;;;;10.60;4.97;;;;;;;15.07;71.43;99630.13;5033058;28;20033;-74
2023/04/21 07:53:00;;;;;;;8.82;4.80;;;;;;;15.31;70.01;99496.75;5035070;28;20033;-72
2023/04/21 07:55:26;;;;;;;11.82;5.90;;;;;;;15.35;69.03;99421.81;5032909;28;20022;-70
2023/04/21 07:57:52;;;;;;;8.82;4.18;;;;;;;15.79;69.24;99576.72;5032621;28;20325;-70
2023/04/21 08:00:17;;;;;;;12.13;5.40;;;;;;;15.57;67.90;99299.25;5034214;28;20441;-71
2023/04/21 08:02:43;;;;;;;10.77;3.95;;;;;;;15.91;68.98;99574.09;5032911;28;20493;-73
2023/04/21 08:05:08;;;;;;;8.07;4.73;;;;;;;16.01;67.31;99391.34;5038277;28;20033;-72
2023/04/21 08:07:34;;;;;;;9.77;4.60;;;;;;;16.11;67.28;99455.38;5031508;28;20155;-70
2023/04/21 08:09:59;;;;;;;11.53;5.20;;;;;;;16.04;67.41;99435.81;5033510;28;20108;-70
2023/04/21 08:12:25;;;;;;;10.70;4.93;;;;;;;16.14;66.23;99254.88;5032500;28;20098;-71
2023/04/21 08:14:50;;;;;;;8.10;4.53;;;;;;;16.57;65.49;99364.91;5032085;28;20044;-72
2023/04/21 08:17:16;;;;;;;11.30;5.63;;;;;;;16.54;65.21;99310.69;5033905;28;20017;-70
2023/04/21 08:19:42;;;;;;;11.77;5.00;;;;;;;16.66;63.98;99223.38;5047778;28;20021;-71
2023/04/21 08:22:08;;;;;;;7.57;5.57;;;;;;;16.27;63.89;99082.25;5044808;28;20079;-71
2023/04/21 08:24:33;;;;;;;;;;;;;;;17.02;63.85;99306.84;5032590;28;20761;-71
2023/04/21 08:27:01;;;;;;;9.38;4.78;;;;;;;16.90;63.89;99298.78;5034401;28;19913;-72
2023/04/21 08:29:27;;;;;;;8.43;5.35;;;;;;;17.11;63.08;99275.72;5030785;28;20359;-70
2023/04/21 08:31:52;;;;;;;11.10;5.15;;;;;;;17.30;62.78;99258.31;5033445;28;20124;-70
2023/04/21 08:34:18;;;;;;;11.50;5.23;;;;;;;17.51;62.45;99326.09;5015175;28;20036;-72
2023/04/21 08:36:46;;;;;;;10.32;4.93;;;;;;;17.72;61.19;99155.38;5030812;28;20438;-70
2023/04/21 08:39:12;;;;;;;12.23;5.47;;;;;;;17.72;61.02;99197.72;5039857;28;20037;-71
2023/04/21 08:41:41;;;;;;;10.23;5.32;;;;;;;17.02;60.24;98755.00;5032098;28;20072;-73
2023/04/21 08:44:07;;;;;;;7.20;5.18;;;;;;;17.60;60.02;99003.53;5040936;28;20500;-70
2023/04/21 08:46:34;;;;;;;12.25;5.40;;;;;;;16.99;58.09;98434.75;5047146;28;20029;-74
2023/04/21 08:49:02;;;;;;;;;;;;;;;17.73;60.77;99253.34;5034361;28;20450;-71
2023/04/21 08:51:29;;;;;;;11.90;5.38;;;;;;;18.38;60.25;99389.69;5032124;28;19927;-72
2023/04/21 08:53:55;;;;;;;9.35;5.88;;;;;;;18.34;58.53;99048.94;5037542;28;20078;-72
2023/04/21 08:56:20;;;;;;;11.20;5.32;;;;;;;18.54;58.45;99107.78;5032282;28;20145;-70
2023/04/21 08:58:45;;;;;;;13.63;6.03;;;;;;;19.00;58.58;99309.44;5030459;28;20033;-72
2023/04/21 09:01:11;;;;;;;14.50;5.00;;;;;;;19.37;57.68;99304.16;5046173;28;20055;-72
2023/04/21 09:03:37;;;;;;;11.87;5.30;;;;;;;19.83;56.57;99245.06;5045238;28;20057;-70
2023/04/21 09:06:07;;;;;;;9.52;5.40;;;;;;;19.90;55.94;99172.53;5046168;28;20863;-71
2023/04/21 09:08:36;;;;;;;13.05;5.95;;;;;;;19.04;54.20;98580.41;5041747;28;20028;-70
2023/04/21 09:11:01;;;;;;;14.25;5.47;;;;;;;17.24;55.96;98339.69;5040248;28;20026;-71
2023/04/21 09:13:36;;;;;;;9.17;5.10;;;;;;;17.92;58.17;99091.94;5045053;28;20037;-71
2023/04/21 09:16:13;;;;;;;14.63;7.03;;;;;;;16.66;57.22;98296.56;5046466;28;20539;-71
2023/04/21 09:18:39;;;;;;;9.60;5.90;;;;;;;18.16;59.61;99427.41;5040999;28;20487;-70
2023/04/21 09:21:08;;;;;;;10.45;5.38;;;;;;;19.28;57.99;99582.50;5061044;28;20079;-71
2023/04/21 09:23:50;;;;;;;10.57;5.05;;;;;;;17.42;57.49;98739.47;5044965;28;20033;-72
2023/04/21 09:26:17;;;;;;;9.52;6.38;;;;;;;16.06;58.56;98501.53;5039520;28;20508;-70
2023/04/21 09:28:44;;;;;;;13.55;5.95;;;;;;;16.37;59.38;98910.13;5046218;28;20067;-71
2023/04/21 09:31:15;;;;;;;11.00;5.25;;;;;;;17.92;60.05;99564.44;5045393;28;20036;-70
2023/04/21 09:33:56;;;;;;;10.93;5.38;;;;;;;17.62;59.66;99354.91;5046353;28;20489;-71
2023/04/21 09:36:24;;;;;;;16.40;7.10;;;;;;;16.58;57.27;98538.69;5035439;28;20090;-73
2023/04/21 09:38:53;;;;;;;9.73;7.05;;;;;;;16.73;59.49;98980.72;5042937;28;20021;-73
2023/04/21 09:41:18;;;;;;;12.90;5.78;;;;;;;17.05;58.53;98980.16;5040870;23;20508;-71
2023/04/21 09:43:43;;;;;;;11.57;5.90;;;;;;;17.27;58.66;99072.69;5022877;28;20094;-74
2023/04/21 09:46:10;;;;;;;11.57;6.53;;;;;;;17.04;59.54;99172.59;5014839;28;20108;-74
2023/04/21 09:48:39;;;;;;;9.65;6.25;;;;;;;18.10;58.30;99337.41;5016176;28;20030;-74
2023/04/21 09:51:05;;;;;;;10.70;5.25;;;;;;;18.86;58.90;99699.19;5007932;28;20056;-74
2023/04/21 09:53:32;;;;;;;;;;;;;;;17.24;57.11;98714.50;5021076;28;20034;-73
2023/04/21 09:55:58;;;;;;;10.13;6.30;;;;;;;17.17;57.03;98754.34;5004115;28;19921;-70
2023/04/21 09:58:27;;;;;;;11.95;6.53;;;;;;;17.23;58.37;99027.56;4987944;28;20036;-73
2023/04/21 10:00:56;;;;;;;13.10;5.47;;;;;;;18.18;57.92;99313.72;5010741;28;20052;-72
2023/04/21 10:03:26;;;;;;;9.93;5.65;;;;;;;19.14;58.15;99711.06;5003911;28;20116;-73
2023/04/21 10:05:52;;;;;;;8.57;5.40;;;;;;;19.53;57.01;99624.56;4987698;28;20096;-74
2023/04/21 10:08:18;;;;;;;9.50;5.63;;;;;;;19.86;55.34;99357.47;5008602;28;20042;-71
2023/04/21 10:10:44;;;;;;;10.15;5.20;;;;;;;19.80;55.67;99362.81;5020181;28;20040;-74
2023/04/21 10:13:15;;;;;;;12.38;6.35;;;;;;;20.66;55.04;99586.91;5005092;28;20029;-74
2023/04/21 10:15:41;;;;;;;11.20;6.25;;;;;;;20.93;53.39;99344.66;4987550;28;20030;-74
2023/04/21 10:18:22;;;;;;;16.00;6.63;;;;;;;18.40;54.89;98643.75;5003901;28;20471;-74
2023/04/21 10:21:01;;;;;;;12.50;5.78;;;;;;;19.86;55.55;99374.53;5004075;28;20515;-71
2023/04/21 10:23:45;;;;;;;9.65;5.10;;;;;;;20.71;54.15;99430.75;4998395;28;20040;-74
2023/04/21 10:26:18;;;;;;;13.23;6.13;;;;;;;19.62;53.16;98694.56;5003026;28;20032;-74
2023/04/21 10:28:56;;;;;;;9.68;5.10;;;;;;;20.62;53.41;99248.75;5003842;28;20030;-74
2023/04/21 10:31:25;;;;;;;13.10;6.65;;;;;;;21.03;53.12;99331.09;4992080;28;20036;-75
2023/04/21 10:34:11;;;;;;;11.05;5.85;;;;;;;21.37;51.76;99189.50;5002685;28;20475;-75
2023/04/21 10:37:06;;;;;;;12.85;5.47;;;;;;;21.18;52.44;99197.38;5003094;28;20042;-75
2023/04/21 10:39:38;;;;;;;14.15;6.20;;;;;;;21.15;51.77;99066.84;4999702;28;20065;-75
2023/04/21 10:42:19;;;;;;;9.60;5.35;;;;;;;21.52;51.72;99269.34;5019897;28;20116;-73
2023/04/21 10:45:01;;;;;;;7.93;4.82;;;;;;;22.14;49.73;99095.09;5004355;28;20022;-74
2023/04/21 10:47:37;;;;;;;13.52;5.50;;;;;;;22.50;49.60;99114.00;4999325;28;20121;-75
2023/04/21 10:50:11;;;;;;;7.20;5.28;;;;;;;22.30;49.36;98981.72;5003426;28;20815;-76
2023/04/21 10:52:37;;;;;;;13.00;6.82;;;;;;;22.74;48.62;99013.47;5003216;28;20479;-72
2023/04/21 10:55:06;;;;;;;9.50;5.80;;;;;;;22.74;47.45;98767.84;5003165;28;20028;-72
2023/04/21 10:57:34;;;;;;;10.27;5.50;;;;;;;22.58;48.50;98876.00;5004611;28;20040;-72
2023/04/21 10:59:59;;;;;;;11.05;5.93;;;;;;;22.32;47.83;98677.78;5004267;28;20137;-74
2023/04/21 11:02:25;;;;;;;12.10;6.15;;;;;;;22.48;48.25;98794.53;5004700;28;20172;-74
2023/04/21 11:04:51;;;;;;;;;;;;;;;22.40;47.24;98596.69;5003522;28;20050;-70
2023/04/21 11:07:22;;;;;;;11.38;5.57;;;;;;;22.38;47.62;98628.78;5008296;28;19913;-73
2023/04/21 11:09:55;;;;;;;8.93;5.45;;;;;;;22.12;47.49;98612.78;4986805;28;20455;-72
2023/04/21 11:12:21;;;;;;;11.68;6.05;;;;;;;21.93;47.88;98589.06;5008145;28;20030;-70
2023/04/21 11:14:49;;;;;;;10.38;6.78;;;;;;;21.94;48.72;98804.53;5019346;28;20365;-71
2023/04/21 11:17:16;;;;;;;13.52;5.95;;;;;;;22.42;47.64;98779.34;5004556;28;20044;-70
2023/04/21 11:19:50;;;;;;;9.25;6.00;;;;;;;22.59;47.88;98871.34;5004153;28;20037;-72
2023/04/21 11:22:16;;;;;;;10.80;5.95;;;;;;;21.64;47.65;98401.00;5001786;28;20026;-73